Time;durP1;ratioP1;P1;durP2;ratioP2;P2;SDS_P1;SDS_P2;PMS_P1;PMS_P2;Temp;Humidity;BMP_temperature;BMP_pressure;BME280_temperature;BME280_humidity;BME280_pressure;Samples;Min_cycle;Max_cycle;Signal;HPM_P1;HPM_P2
2022/03/23 00:02:02;;;;;;;11.20;7.10;;;10.60;91.40;;;;;;7384258;19;20208;-75
2022/03/23 00:04:28;;;;;;;9.13;6.87;;;10.40;91.70;;;;;;7385273;19;20127;-75
2022/03/23 00:06:54;;;;;;;10.57;6.80;;;10.30;91.80;;;;;;7384025;19;20262;-77
2022/03/23 00:09:20;;;;;;;13.27;7.50;;;10.10;92.00;;;;;;7382943;19;20131;-74
2022/03/23 00:11:46;;;;;;;10.70;7.00;;;9.90;92.50;;;;;;7384040;19;20186;-77
2022/03/23 00:14:12;;;;;;;12.57;7.83;;;9.70;92.60;;;;;;7385139;19;20122;-77
2022/03/23 00:16:38;;;;;;;12.33;7.33;;;9.40;93.30;;;;;;7381718;19;20145;-76
2022/03/23 00:19:07;;;;;;;10.03;6.80;;;9.60;93.40;;;;;;7383730;19;20131;-76
2022/03/23 00:21:33;;;;;;;12.00;7.30;;;9.90;93.10;;;;;;7383977;19;20135;-75
2022/03/23 00:24:00;;;;;;;13.33;7.63;;;10.10;93.10;;;;;;7383620;19;20123;-75
2022/03/23 00:26:25;;;;;;;16.03;8.07;;;10.20;93.40;;;;;;7383076;19;20151;-75
2022/03/23 00:28:51;;;;;;;15.10;9.03;;;10.20;93.50;;;;;;7383745;19;20138;-76
2022/03/23 00:31:20;;;;;;;14.43;8.60;;;10.20;93.60;;;;;;7384707;19;20146;-75
2022/03/23 00:33:47;;;;;;;15.77;8.43;;;10.20;93.60;;;;;;7384813;19;20146;-77
2022/03/23 00:36:13;;;;;;;13.27;8.03;;;10.00;93.90;;;;;;7381767;19;20131;-75
2022/03/23 00:38:39;;;;;;;13.07;8.40;;;9.80;94.10;;;;;;7384851;19;20131;-75
2022/03/23 00:41:05;;;;;;;14.63;7.93;;;9.60;94.50;;;;;;7382493;19;20145;-75
2022/03/23 00:43:31;;;;;;;14.00;8.07;;;9.80;94.50;;;;;;7383791;19;20140;-74
2022/03/23 00:45:58;;;;;;;14.00;8.23;;;9.90;94.20;;;;;;7383476;19;20633;-76
2022/03/23 00:48:23;;;;;;;13.37;7.97;;;9.90;94.30;;;;;;7385030;19;20579;-75
2022/03/23 00:50:49;;;;;;;11.70;8.10;;;9.70;94.00;;;;;;7385086;19;20138;-74
2022/03/23 00:53:15;;;;;;;12.23;8.13;;;9.50;94.30;;;;;;7382467;19;20130;-75
2022/03/23 00:55:41;;;;;;;14.20;7.93;;;9.60;94.30;;;;;;7383358;19;20127;-75
2022/03/23 00:58:07;;;;;;;13.50;7.60;;;9.70;94.10;;;;;;7381362;19;20127;-76
2022/03/23 01:00:34;;;;;;;11.03;7.33;;;9.80;93.80;;;;;;7383881;19;20460;-75
2022/03/23 01:02:59;;;;;;;13.00;7.33;;;9.50;93.40;;;;;;7382027;19;20126;-75
2022/03/23 01:05:28;;;;;;;11.40;7.50;;;9.50;93.70;;;;;;7383013;19;20135;-75
2022/03/23 01:07:54;;;;;;;11.93;7.20;;;9.60;93.50;;;;;;7383823;19;20145;-77
2022/03/23 01:10:21;;;;;;;11.53;6.87;;;9.30;93.70;;;;;;7382553;19;20135;-76
2022/03/23 01:12:50;;;;;;;13.27;7.63;;;9.10;94.30;;;;;;7382308;19;20134;-76
2022/03/23 01:15:19;;;;;;;12.53;7.20;;;9.10;94.30;;;;;;7381864;19;20144;-75
2022/03/23 01:17:45;;;;;;;11.57;7.23;;;9.50;94.40;;;;;;7382972;19;20210;-74
2022/03/23 01:20:14;;;;;;;9.70;6.60;;;9.00;94.20;;;;;;7389862;19;20575;-75
2022/03/23 01:22:41;;;;;;;9.87;6.30;;;9.20;94.40;;;;;;7394203;19;20146;-74
2022/03/23 01:25:08;;;;;;;9.50;6.43;;;9.40;93.80;;;;;;7392933;19;20162;-76
2022/03/23 01:27:38;;;;;;;10.43;6.67;;;9.50;93.60;;;;;;7388034;19;20134;-75
2022/03/23 01:30:05;;;;;;;10.47;6.73;;;9.10;93.60;;;;;;7394881;19;20850;-77
2022/03/23 01:32:34;;;;;;;8.53;5.80;;;9.20;93.50;;;;;;7391560;19;20235;-75
2022/03/23 01:35:00;;;;;;;10.80;6.07;;;9.40;93.00;;;;;;7390787;19;20178;-75
2022/03/23 01:37:25;;;;;;;12.03;6.50;;;9.40;93.30;;;;;;7390886;19;20138;-75
2022/03/23 01:39:51;;;;;;;9.43;6.13;;;9.40;93.00;;;;;;7394680;19;20138;-75
2022/03/23 01:42:17;;;;;;;10.13;6.30;;;9.40;92.50;;;;;;7390256;19;20617;-75
2022/03/23 01:44:43;;;;;;;12.17;7.87;;;9.60;92.70;;;;;;7390494;19;20218;-75
2022/03/23 01:47:10;;;;;;;11.40;7.43;;;9.60;93.00;;;;;;7391070;19;20165;-74
2022/03/23 01:49:39;;;;;;;11.10;6.47;;;9.60;93.30;;;;;;7394152;19;20202;-75
2022/03/23 01:52:08;;;;;;;8.70;5.70;;;9.40;92.70;;;;;;7390132;19;20732;-75
2022/03/23 01:54:35;;;;;;;8.67;5.90;;;9.20;92.60;;;;;;7393877;19;20127;-76
2022/03/23 01:57:03;;;;;;;9.43;6.27;;;9.20;92.50;;;;;;7388404;19;20127;-77
2022/03/23 01:59:29;;;;;;;8.10;6.00;;;9.00;92.60;;;;;;7391165;19;20151;-76
2022/03/23 02:01:55;;;;;;;10.03;6.67;;;8.90;92.80;;;;;;7391443;19;20131;-75
2022/03/23 02:04:22;;;;;;;9.37;5.90;;;8.70;92.90;;;;;;7391442;19;20531;-76
2022/03/23 02:06:48;;;;;;;9.33;5.97;;;8.80;93.20;;;;;;7394960;19;20150;-76
2022/03/23 02:09:15;;;;;;;9.97;5.90;;;8.70;92.80;;;;;;7391459;19;20150;-75
2022/03/23 02:11:42;;;;;;;11.97;6.30;;;8.60;93.00;;;;;;7390482;19;20618;-75
2022/03/23 02:14:09;;;;;;;9.77;6.20;;;8.60;93.30;;;;;;7391158;19;20519;-74
2022/03/23 02:16:42;;;;;;;8.93;6.20;;;8.80;93.30;;;;;;7386675;19;20131;-75
2022/03/23 02:19:08;;;;;;;11.70;6.20;;;8.70;93.60;;;;;;7392102;19;20143;-75
2022/03/23 02:21:34;;;;;;;11.00;6.53;;;8.80;93.80;;;;;;7392765;19;20134;-75
2022/03/23 02:24:03;;;;;;;11.73;7.13;;;8.90;93.70;;;;;;7390856;19;20154;-74
2022/03/23 02:26:29;;;;;;;11.50;5.77;;;9.10;93.70;;;;;;7390452;19;20134;-74
2022/03/23 02:28:55;;;;;;;12.63;7.80;;;9.10;93.60;;;;;;7390579;19;20578;-77
2022/03/23 02:31:21;;;;;;;11.47;7.07;;;9.30;93.60;;;;;;7388937;19;20127;-74
2022/03/23 02:33:47;;;;;;;11.07;7.17;;;9.10;93.70;;;;;;7387119;19;20165;-75
2022/03/23 02:36:13;;;;;;;11.77;7.23;;;9.10;93.70;;;;;;7389898;19;20141;-74
2022/03/23 02:38:38;;;;;;;19.67;7.60;;;9.10;93.80;;;;;;7391778;19;20486;-74
2022/03/23 02:41:04;;;;;;;11.43;7.27;;;8.90;93.80;;;;;;7388209;19;20201;-74
2022/03/23 02:43:30;;;;;;;9.67;6.73;;;8.50;94.40;;;;;;7394065;19;20513;-75
2022/03/23 02:45:56;;;;;;;12.30;7.20;;;8.70;94.50;;;;;;7389063;19;20135;-75
2022/03/23 02:48:21;;;;;;;12.00;7.07;;;8.80;94.30;;;;;;7387782;19;20138;-76
2022/03/23 02:50:47;;;;;;;10.40;7.20;;;8.90;94.20;;;;;;7389726;19;20131;-75
2022/03/23 03:02:33;;;;;;;11.67;7.40;;;8.80;94.40;;;;;;7388045;19;20151;-74
2022/03/23 03:05:00;;;;;;;10.80;7.50;;;8.60;94.50;;;;;;7389458;19;20582;-77
2022/03/23 03:07:26;;;;;;;12.97;6.80;;;8.60;94.80;;;;;;7387372;19;20191;-76
2022/03/23 03:09:51;;;;;;;11.27;7.43;;;8.70;94.60;;;;;;7387321;19;20127;-76
2022/03/23 03:12:17;;;;;;;9.33;6.93;;;8.80;94.50;;;;;;7389562;19;20995;-74
2022/03/23 03:14:43;;;;;;;11.60;7.73;;;8.80;94.60;;;;;;7389346;19;20677;-74
2022/03/23 03:17:09;;;;;;;12.27;7.50;;;8.70;94.70;;;;;;7387483;19;20641;-74
2022/03/23 03:19:35;;;;;;;11.10;7.07;;;8.70;94.70;;;;;;7388485;19;20130;-74
2022/03/23 03:22:02;;;;;;;12.80;7.20;;;8.70;94.80;;;;;;7388640;19;20169;-74
2022/03/23 03:24:28;;;;;;;13.00;7.80;;;8.70;94.90;;;;;;7388272;19;20145;-75
2022/03/23 03:26:55;;;;;;;13.20;7.53;;;8.40;95.30;;;;;;7389943;19;20131;-74
2022/03/23 03:29:22;;;;;;;12.57;7.33;;;8.50;95.30;;;;;;7388532;19;20135;-75
2022/03/23 03:31:48;;;;;;;11.03;7.70;;;8.60;95.20;;;;;;7387520;19;20143;-74
2022/03/23 03:34:26;;;;;;;11.40;7.83;;;8.60;95.10;;;;;;7385773;19;20893;-74
2022/03/23 03:36:52;;;;;;;11.83;7.47;;;8.60;95.50;;;;;;7385819;19;20134;-74
2022/03/23 03:39:17;;;;;;;12.40;7.63;;;8.50;95.50;;;;;;7387834;19;20190;-74
2022/03/23 03:41:43;;;;;;;12.37;8.37;;;8.60;95.40;;;;;;7387954;19;20456;-75
2022/03/23 03:44:09;;;;;;;14.00;7.73;;;8.60;95.30;;;;;;7384445;19;20126;-74
2022/03/23 03:46:35;;;;;;;13.13;8.20;;;8.10;95.90;;;;;;7385601;19;20500;-75
2022/03/23 03:49:01;;;;;;;15.23;7.80;;;8.10;96.20;;;;;;7385681;19;20138;-75
2022/03/23 03:51:27;;;;;;;15.03;8.03;;;7.90;96.40;;;;;;7388354;19;20161;-75
2022/03/23 03:53:52;;;;;;;14.90;7.60;;;7.60;97.20;;;;;;7387681;19;20598;-75
2022/03/23 03:56:18;;;;;;;13.00;7.27;;;7.60;97.50;;;;;;7384350;19;20675;-74
2022/03/23 03:58:44;;;;;;;15.23;7.40;;;7.80;97.20;;;;;;7388063;19;20163;-75
2022/03/23 04:01:10;;;;;;;12.17;7.77;;;7.80;97.10;;;;;;7386552;19;20138;-76
2022/03/23 04:03:35;;;;;;;12.33;7.70;;;8.00;97.10;;;;;;7385551;19;20138;-75
2022/03/23 04:06:02;;;;;;;14.07;8.40;;;8.20;96.80;;;;;;7384529;19;20134;-74
2022/03/23 04:08:27;;;;;;;13.07;8.63;;;8.30;96.50;;;;;;7387485;19;20151;-74
2022/03/23 04:10:53;;;;;;;14.23;8.93;;;8.30;96.50;;;;;;7387341;19;20130;-75
2022/03/23 04:13:19;;;;;;;12.83;8.50;;;8.30;96.80;;;;;;7386248;19;20141;-76
2022/03/23 04:15:45;;;;;;;11.93;7.67;;;8.30;96.50;;;;;;7385272;19;20131;-75
2022/03/23 04:18:10;;;;;;;13.83;7.57;;;8.30;96.40;;;;;;7386218;19;20142;-76
2022/03/23 04:20:36;;;;;;;13.60;7.73;;;8.20;96.70;;;;;;7384431;19;20134;-75
2022/03/23 04:23:02;;;;;;;12.00;7.80;;;8.20;96.80;;;;;;7387358;19;20499;-74
2022/03/23 04:25:27;;;;;;;13.13;8.00;;;8.20;96.70;;;;;;7386189;19;20135;-75
2022/03/23 04:27:55;;;;;;;13.43;7.93;;;8.00;96.90;;;;;;7383642;19;20670;-74
2022/03/23 04:30:23;;;;;;;14.17;8.13;;;7.80;97.40;;;;;;7389321;19;20509;-75
2022/03/23 04:32:51;;;;;;;14.97;7.83;;;7.20;98.10;;;;;;7385983;19;20158;-74
2022/03/23 04:35:17;;;;;;;11.57;7.43;;;7.30;98.40;;;;;;7383772;19;20127;-75
2022/03/23 04:37:47;;;;;;;11.73;8.00;;;7.50;98.40;;;;;;7383211;19;20704;-75
2022/03/23 04:40:16;;;;;;;11.60;7.97;;;7.70;98.20;;;;;;7385262;19;20141;-75
2022/03/23 04:42:43;;;;;;;11.23;7.60;;;7.80;97.80;;;;;;7387088;19;20144;-76
2022/03/23 04:45:10;;;;;;;12.43;8.10;;;8.00;98.00;;;;;;7384397;19;20160;-74
2022/03/23 04:47:36;;;;;;;12.83;8.43;;;8.00;97.60;;;;;;7383557;19;20135;-75
2022/03/23 04:50:05;;;;;;;11.80;7.87;;;8.10;97.40;;;;;;7384681;19;20149;-73
2022/03/23 04:52:31;;;;;;;12.97;7.73;;;8.10;97.40;;;;;;7384674;19;20135;-76
2022/03/23 04:54:57;;;;;;;12.33;8.27;;;8.10;97.30;;;;;;7389245;19;20138;-75
2022/03/23 04:57:24;;;;;;;13.20;8.10;;;8.00;97.40;;;;;;7390584;19;20145;-74
2022/03/23 04:59:51;;;;;;;12.63;7.97;;;8.00;97.40;;;;;;7393695;19;20130;-75
2022/03/23 05:02:17;;;;;;;13.73;8.23;;;8.00;97.40;;;;;;7391264;19;20730;-75
2022/03/23 05:04:44;;;;;;;12.03;8.10;;;7.90;97.50;;;;;;7391533;19;20497;-73
2022/03/23 05:07:10;;;;;;;12.60;7.83;;;7.70;97.80;;;;;;7390130;19;20169;-75
2022/03/23 05:09:36;;;;;;;15.53;8.57;;;7.60;97.90;;;;;;7392901;19;20793;-74
2022/03/23 05:12:02;;;;;;;13.03;8.47;;;7.70;98.20;;;;;;7392837;19;20135;-75
2022/03/23 05:14:27;;;;;;;12.23;7.90;;;7.80;98.00;;;;;;7391509;19;20127;-74
2022/03/23 05:16:53;;;;;;;14.40;9.07;;;7.70;97.90;;;;;;7387973;19;20135;-75
2022/03/23 05:19:19;;;;;;;15.13;8.17;;;7.60;98.20;;;;;;7392097;19;20528;-74
2022/03/23 05:21:45;;;;;;;11.53;7.97;;;7.40;98.40;;;;;;7391483;19;20130;-75
2022/03/23 05:24:11;;;;;;;13.77;8.63;;;7.40;98.70;;;;;;7391692;19;20122;-75
2022/03/23 05:26:37;;;;;;;15.00;8.47;;;7.30;98.80;;;;;;7392448;19;20483;-74
2022/03/23 05:29:03;;;;;;;16.33;8.40;;;7.40;98.80;;;;;;7392876;19;20155;-75
2022/03/23 05:31:28;;;;;;;12.73;8.63;;;7.60;98.70;;;;;;7392895;19;20111;-74
2022/03/23 05:33:54;;;;;;;14.67;8.70;;;7.70;98.50;;;;;;7388206;19;20494;-76
2022/03/23 05:36:20;;;;;;;13.47;8.53;;;7.80;98.40;;;;;;7390390;19;20134;-75
2022/03/23 05:38:46;;;;;;;15.40;8.63;;;7.90;98.00;;;;;;7392082;19;20139;-76
2022/03/23 05:41:12;;;;;;;12.97;8.50;;;8.00;97.70;;;;;;7392397;19;20602;-74
2022/03/23 05:43:37;;;;;;;14.43;9.07;;;7.90;97.70;;;;;;7392857;19;20145;-75
2022/03/23 05:46:03;;;;;;;15.30;9.03;;;7.80;97.80;;;;;;7391696;19;20189;-74
2022/03/23 05:48:29;;;;;;;13.80;8.43;;;7.80;98.00;;;;;;7389961;19;20130;-73
2022/03/23 05:50:54;;;;;;;15.67;8.80;;;7.80;97.90;;;;;;7390701;19;20135;-75
2022/03/23 05:53:21;;;;;;;14.67;8.53;;;7.80;97.90;;;;;;7389886;19;20159;-75
2022/03/23 05:55:46;;;;;;;16.60;9.43;;;7.70;98.00;;;;;;7390351;19;20202;-75
2022/03/23 05:58:12;;;;;;;15.97;9.27;;;7.80;97.90;;;;;;7389169;19;20127;-74
2022/03/23 06:00:38;;;;;;;15.33;9.37;;;7.80;98.00;;;;;;7389057;19;20131;-76
2022/03/23 06:03:04;;;;;;;13.87;8.80;;;7.70;98.10;;;;;;7391441;19;20145;-75
2022/03/23 06:05:30;;;;;;;17.30;9.70;;;7.70;97.90;;;;;;7389140;19;20131;-74
2022/03/23 06:07:56;;;;;;;14.73;9.23;;;7.70;98.10;;;;;;7390670;19;20184;-74
2022/03/23 06:10:22;;;;;;;22.80;9.43;;;7.80;98.20;;;;;;7390818;19;20471;-75
2022/03/23 06:12:47;;;;;;;17.03;9.80;;;7.90;97.90;;;;;;7389339;19;20130;-75
2022/03/23 06:15:13;;;;;;;15.87;9.03;;;8.00;97.80;;;;;;7388202;19;20131;-75
2022/03/23 06:17:40;;;;;;;21.60;8.67;;;8.00;97.80;;;;;;7388544;19;20123;-76
2022/03/23 06:20:06;;;;;;;14.77;9.17;;;8.00;97.90;;;;;;7390474;19;20469;-74
2022/03/23 06:22:33;;;;;;;16.40;9.63;;;8.10;97.60;;;;;;7389654;19;20486;-75
2022/03/23 06:24:59;;;;;;;18.50;9.20;;;8.20;97.60;;;;;;7389227;19;20131;-74
2022/03/23 06:27:25;;;;;;;18.37;9.87;;;8.10;97.50;;;;;;7391682;19;20621;-75
2022/03/23 06:29:51;;;;;;;16.80;9.73;;;8.00;97.80;;;;;;7391775;19;20679;-74
2022/03/23 06:32:17;;;;;;;17.83;9.60;;;8.10;97.50;;;;;;7390076;19;20152;-75
2022/03/23 06:34:43;;;;;;;14.27;8.93;;;8.20;97.10;;;;;;7390448;19;20156;-74
2022/03/23 06:37:09;;;;;;;16.83;9.90;;;8.20;97.10;;;;;;7385467;19;20139;-75
2022/03/23 06:39:35;;;;;;;18.20;9.57;;;8.10;97.20;;;;;;7390399;19;20149;-75
2022/03/23 06:42:01;;;;;;;18.23;9.27;;;8.10;97.40;;;;;;7390064;19;20150;-75
2022/03/23 06:44:27;;;;;;;17.13;9.60;;;8.20;97.30;;;;;;7388232;19;20186;-75
2022/03/23 06:46:54;;;;;;;18.13;10.33;;;8.30;97.10;;;;;;7387411;19;20137;-75
2022/03/23 06:49:19;;;;;;;17.17;9.83;;;8.30;96.80;;;;;;7389447;19;20130;-74
2022/03/23 06:51:45;;;;;;;13.63;9.33;;;8.30;96.90;;;;;;7389351;19;20146;-75
2022/03/23 06:54:11;;;;;;;15.63;9.30;;;8.30;97.00;;;;;;7388831;19;20131;-76
2022/03/23 06:56:37;;;;;;;16.03;9.57;;;8.30;96.80;;;;;;7385030;19;20138;-73
2022/03/23 06:59:04;;;;;;;16.70;9.23;;;8.30;96.70;;;;;;7387887;19;20123;-76
2022/03/23 07:01:30;;;;;;;17.23;9.60;;;8.20;96.70;;;;;;7387063;19;20160;-75
2022/03/23 07:03:56;;;;;;;16.43;9.67;;;8.20;96.90;;;;;;7389191;19;20632;-74
2022/03/23 07:06:22;;;;;;;14.93;9.67;;;8.20;97.00;;;;;;7386507;19;20151;-74
2022/03/23 07:11:32;;;;;;;14.17;9.87;;;8.10;97.10;;;;;;7389037;19;20160;-75
2022/03/23 07:13:58;;;;;;;15.77;9.80;;;8.10;97.10;;;;;;7387628;19;20131;-77
2022/03/23 07:16:23;;;;;;;15.70;9.53;;;8.10;97.10;;;;;;7385239;19;20929;-76
2022/03/23 07:18:49;;;;;;;17.63;9.80;;;8.10;97.20;;;;;;7389012;19;20123;-75
2022/03/23 07:21:15;;;;;;;16.17;9.20;;;8.10;97.10;;;;;;7386589;19;20190;-76
2022/03/23 07:23:41;;;;;;;14.03;9.13;;;8.20;97.10;;;;;;7388559;19;20227;-73
2022/03/23 07:26:08;;;;;;;14.33;8.83;;;8.30;97.00;;;;;;7386657;19;20535;-74
2022/03/23 07:28:34;;;;;;;16.03;9.93;;;8.40;96.90;;;;;;7386826;19;20499;-75
2022/03/23 07:31:00;;;;;;;18.30;10.27;;;8.50;96.70;;;;;;7387952;19;20564;-75
2022/03/23 07:33:26;;;;;;;16.13;10.17;;;8.60;96.80;;;;;;7384741;19;20607;-74
2022/03/23 07:35:52;;;;;;;17.13;10.47;;;8.60;96.60;;;;;;7383935;19;20114;-74
2022/03/23 07:38:18;;;;;;;15.70;9.77;;;8.60;96.60;;;;;;7384773;19;20611;-75
2022/03/23 07:40:44;;;;;;;17.10;9.77;;;8.60;96.70;;;;;;7385897;19;20474;-74
2022/03/23 07:43:10;;;;;;;18.57;10.03;;;8.70;96.70;;;;;;7388768;19;20127;-74
2022/03/23 07:45:36;;;;;;;16.47;9.90;;;8.70;96.70;;;;;;7385315;19;20144;-74
2022/03/23 07:48:02;;;;;;;16.37;10.73;;;8.80;96.60;;;;;;7386382;19;20202;-75
2022/03/23 07:50:27;;;;;;;15.47;10.03;;;8.80;96.60;;;;;;7385562;19;20146;-74
2022/03/23 07:52:54;;;;;;;19.00;10.63;;;8.70;96.90;;;;;;7387013;19;20460;-74
2022/03/23 07:55:20;;;;;;;14.80;10.00;;;8.60;97.30;;;;;;7384414;19;20131;-74
2022/03/23 07:57:45;;;;;;;21.27;10.27;;;8.50;96.80;;;;;;7386576;19;20126;-74
2022/03/23 08:00:12;;;;;;;14.40;9.63;;;8.30;97.20;;;;;;7384507;19;20585;-75
2022/03/23 08:02:37;;;;;;;18.00;10.67;;;8.30;97.50;;;;;;7385019;19;20151;-74
2022/03/23 08:05:04;;;;;;;18.27;10.53;;;8.70;97.40;;;;;;7385445;19;20567;-76
2022/03/23 08:07:30;;;;;;;17.27;10.77;;;8.80;97.40;;;;;;7385175;19;20193;-75
2022/03/23 08:09:56;;;;;;;20.20;12.03;;;9.10;96.80;;;;;;7385119;19;20143;-76
2022/03/23 08:12:22;;;;;;;18.70;10.43;;;9.40;96.30;;;;;;7384809;19;20127;-75
2022/03/23 08:14:48;;;;;;;16.23;10.80;;;9.60;95.70;;;;;;7385189;19;20126;-75
2022/03/23 08:17:14;;;;;;;22.33;11.27;;;9.80;95.50;;;;;;7382058;19;20156;-75
2022/03/23 08:19:39;;;;;;;15.87;11.20;;;9.80;95.40;;;;;;7384345;19;20130;-76
2022/03/23 08:22:05;;;;;;;17.60;11.00;;;9.90;95.30;;;;;;7386375;19;20131;-75
2022/03/23 08:24:31;;;;;;;15.37;10.40;;;10.00;95.30;;;;;;7384166;19;20227;-75
2022/03/23 08:26:59;;;;;;;17.57;10.53;;;10.10;95.20;;;;;;7388030;19;20134;-75
2022/03/23 08:29:25;;;;;;;17.63;10.07;;;10.20;95.00;;;;;;7385202;19;20473;-75
2022/03/23 08:31:52;;;;;;;16.13;10.23;;;10.30;95.00;;;;;;7385468;19;20136;-74
2022/03/23 08:34:18;;;;;;;16.57;10.73;;;10.40;94.90;;;;;;7384050;19;20931;-75
2022/03/23 08:36:44;;;;;;;16.23;11.10;;;10.50;94.90;;;;;;7381643;19;20138;-75
2022/03/23 08:39:10;;;;;;;16.67;10.03;;;10.50;94.70;;;;;;7392678;19;20145;-76
2022/03/23 08:41:36;;;;;;;17.60;9.80;;;10.60;94.60;;;;;;7391199;19;20518;-74
2022/03/23 08:44:03;;;;;;;16.80;10.20;;;10.70;94.40;;;;;;7385497;19;20159;-73
2022/03/23 08:46:29;;;;;;;14.83;10.17;;;10.80;94.20;;;;;;7384258;19;20141;-76
2022/03/23 08:48:55;;;;;;;17.93;10.50;;;11.00;94.20;;;;;;7383521;19;20266;-75
2022/03/23 08:51:21;;;;;;;16.63;11.03;;;11.10;94.00;;;;;;7385109;19;20135;-76
2022/03/23 08:53:47;;;;;;;16.83;10.13;;;11.30;94.40;;;;;;7383572;19;20563;-77
2022/03/23 08:56:13;;;;;;;19.50;10.53;;;11.40;93.90;;;;;;7381233;19;20131;-75
2022/03/23 08:58:47;;;;;;;15.57;9.93;;;11.60;94.00;;;;;;7383965;19;20473;-75
2022/03/23 09:01:16;;;;;;;15.10;9.63;;;11.80;93.60;;;;;;7384430;19;20897;-76
2022/03/23 09:03:43;;;;;;;17.77;10.87;;;12.00;93.20;;;;;;7383699;19;20138;-75
2022/03/23 09:06:11;;;;;;;19.10;10.63;;;12.30;92.70;;;;;;7384068;19;20134;-75
2022/03/23 09:08:37;;;;;;;15.97;11.07;;;12.30;92.50;;;;;;7385074;19;20143;-76
2022/03/23 09:11:04;;;;;;;16.03;10.83;;;12.30;92.30;;;;;;7384924;19;20144;-76
2022/03/23 09:13:29;;;;;;;18.53;9.90;;;12.40;92.20;;;;;;7382659;19;20558;-74
2022/03/23 09:15:56;;;;;;;14.80;9.80;;;12.40;92.10;;;;;;7380695;19;20147;-76
2022/03/23 09:18:26;;;;;;;18.30;11.40;;;12.60;92.00;;;;;;7383002;19;20485;-76
2022/03/23 09:20:52;;;;;;;17.50;10.07;;;12.60;91.70;;;;;;7384687;19;20138;-75
2022/03/23 09:23:18;;;;;;;15.87;11.40;;;12.60;91.70;;;;;;7384087;19;20142;-76
2022/03/23 09:25:44;;;;;;;18.60;10.87;;;12.60;91.30;;;;;;7382716;19;20135;-75
2022/03/23 09:28:11;;;;;;;17.03;10.47;;;12.60;91.30;;;;;;7382559;19;20142;-74
2022/03/23 09:30:37;;;;;;;15.63;10.43;;;12.70;91.20;;;;;;7382622;19;20141;-75
2022/03/23 09:33:03;;;;;;;16.43;11.07;;;12.90;91.10;;;;;;7384936;19;20158;-75
2022/03/23 09:35:29;;;;;;;17.13;10.43;;;12.90;91.00;;;;;;7383006;19;20146;-75
2022/03/23 09:37:56;;;;;;;16.37;11.00;;;12.90;90.80;;;;;;7381256;19;20138;-75
2022/03/23 09:40:31;;;;;;;17.07;11.20;;;13.00;90.60;;;;;;7381945;19;20118;-74
2022/03/23 09:42:58;;;;;;;16.67;10.70;;;13.10;90.50;;;;;;7393866;19;20167;-74
2022/03/23 09:48:00;;;;;;;16.30;10.87;;;13.30;90.00;;;;;;7388912;19;20154;-75
2022/03/23 09:50:30;;;;;;;15.33;10.40;;;13.40;89.60;;;;;;7391987;19;20913;-74
2022/03/23 09:52:56;;;;;;;19.90;11.13;;;13.50;89.80;;;;;;7390579;19;20139;-75
2022/03/23 09:55:23;;;;;;;17.27;10.97;;;13.50;90.00;;;;;;7389260;19;20123;-76
2022/03/23 09:57:48;;;;;;;18.00;10.85;;;13.60;90.10;;;;;;7390550;19;20932;-75
2022/03/23 10:00:15;;;;;;;18.17;10.73;;;13.70;90.00;;;;;;7388874;19;20164;-76
2022/03/23 10:02:40;;;;;;;18.67;10.77;;;13.90;89.50;;;;;;7391237;19;20208;-75
2022/03/23 10:05:27;;;;;;;17.07;10.30;;;14.00;89.00;;;;;;7390668;19;20130;-76
2022/03/23 10:08:11;;;;;;;15.70;10.23;;;14.10;88.20;;;;;;7388822;19;20213;-75
2022/03/23 10:11:05;;;;;;;17.03;11.13;;;14.10;87.70;;;;;;7390439;19;20127;-76
2022/03/23 10:14:08;;;;;;;13.45;9.88;;;14.20;87.00;;;;;;7390113;19;20146;-78
2022/03/23 10:17:08;;;;;;;16.52;9.43;;;14.20;85.10;;;;;;7388672;19;20840;-75
2022/03/23 10:19:40;;;;;;;16.23;10.13;;;14.30;82.90;;;;;;7388022;19;20483;-75
2022/03/23 10:22:08;;;;;;;12.40;8.25;;;14.40;81.90;;;;;;7389571;19;20138;-75
2022/03/23 10:24:35;;;;;;;9.93;7.40;;;14.40;76.70;;;;;;7387486;19;20301;-74
2022/03/23 10:27:06;;;;;;;10.40;7.60;;;14.50;75.80;;;;;;7390736;19;20159;-75
2022/03/23 10:29:32;;;;;;;9.82;7.00;;;14.70;74.20;;;;;;7390427;19;20150;-76
2022/03/23 10:32:08;;;;;;;8.30;6.20;;;14.80;71.90;;;;;;7387707;19;20126;-77
2022/03/23 10:34:42;;;;;;;7.65;6.32;;;14.80;70.80;;;;;;7387298;19;20156;-73
2022/03/23 10:37:08;;;;;;;7.70;5.97;;;14.90;69.50;;;;;;7387095;19;20134;-77
2022/03/23 10:39:34;;;;;;;10.73;6.00;;;15.00;67.00;;;;;;7387161;19;20127;-78
2022/03/23 10:42:09;;;;;;;8.07;6.13;;;15.00;66.30;;;;;;7388541;19;20166;-74
2022/03/23 10:44:35;;;;;;;8.90;6.63;;;15.10;67.90;;;;;;7387490;19;20618;-74
2022/03/23 10:47:02;;;;;;;9.18;7.05;;;15.10;69.20;;;;;;7388060;19;20145;-74
2022/03/23 10:49:37;;;;;;;12.32;7.43;;;15.20;69.60;;;;;;7390608;19;20511;-78
2022/03/23 10:52:15;;;;;;;10.23;7.40;;;15.30;69.40;;;;;;7385852;19;20146;-77
2022/03/23 10:54:56;;;;;;;8.63;6.63;;;15.40;68.30;;;;;;7388568;19;20142;-76
2022/03/23 11:00:40;;;;;;;12.85;7.28;;;15.50;67.20;;;;;;7392299;19;20150;-75
2022/03/23 11:03:09;;;;;;;14.15;8.60;;;15.70;67.70;;;;;;7389969;19;20135;-75
2022/03/23 11:05:44;;;;;;;9.00;6.90;;;15.80;67.60;;;;;;7386786;19;20530;-75
2022/03/23 11:08:18;;;;;;;9.55;6.35;;;15.90;66.30;;;;;;7387788;19;20151;-75
2022/03/23 11:16:28;;;;;;;11.70;7.75;;;16.20;67.50;;;;;;7386155;19;20152;-76
2022/03/23 11:19:10;;;;;;;9.48;6.97;;;16.30;66.30;;;;;;7386939;19;20130;-75
2022/03/23 11:22:02;;;;;;;9.48;7.57;;;16.20;67.20;;;;;;7387998;19;20134;-76
2022/03/23 11:24:36;;;;;;;9.05;7.05;;;16.20;68.90;;;;;;7386607;19;20141;-76
2022/03/23 11:27:03;;;;;;;7.65;6.68;;;16.40;67.10;;;;;;7389889;19;20147;-75
2022/03/23 11:29:33;;;;;;;8.75;6.70;;;16.60;67.10;;;;;;7388331;19;20174;-76
2022/03/23 11:32:04;;;;;;;8.57;6.80;;;16.80;67.40;;;;;;7386095;19;20206;-76
2022/03/23 11:34:32;;;;;;;8.52;6.85;;;17.00;64.00;;;;;;7387406;19;20134;-75
2022/03/23 11:36:58;;;;;;;8.65;6.10;;;17.00;62.20;;;;;;7387064;19;20215;-76
2022/03/23 11:39:26;;;;;;;7.88;6.53;;;16.90;62.70;;;;;;7388319;19;20130;-74
2022/03/23 11:41:53;;;;;;;7.32;5.72;;;16.90;61.90;;;;;;7389069;19;20160;-77
2022/03/23 11:44:23;;;;;;;9.52;6.50;;;16.90;61.90;;;;;;7386553;19;20134;-74
2022/03/23 11:46:52;;;;;;;8.50;6.13;;;17.00;61.60;;;;;;7386747;19;20602;-75
2022/03/23 11:49:38;;;;;;;9.00;6.15;;;17.00;61.10;;;;;;7384579;19;20858;-77
2022/03/23 11:52:48;;;;;;;8.80;6.05;;;17.00;61.20;;;;;;7386014;19;20139;-75
2022/03/23 11:55:37;;;;;;;8.73;5.85;;;17.10;61.30;;;;;;7385838;19;20150;-76
2022/03/23 11:58:24;;;;;;;7.97;6.10;;;17.20;60.90;;;;;;7385821;19;20143;-74
2022/03/23 12:00:52;;;;;;;8.00;5.55;;;17.50;61.00;;;;;;7386706;19;20141;-75
2022/03/23 12:03:47;;;;;;;6.55;5.57;;;17.60;61.20;;;;;;7384543;19;20462;-76
2022/03/23 12:06:15;;;;;;;12.18;6.85;;;17.60;60.40;;;;;;7386012;19;20152;-75
2022/03/23 12:08:53;;;;;;;7.78;5.72;;;17.60;59.80;;;;;;7385662;19;20137;-76
2022/03/23 12:11:41;;;;;;;8.80;6.38;;;17.60;59.80;;;;;;7386049;19;20546;-76
2022/03/23 12:14:36;;;;;;;6.95;5.40;;;17.60;60.00;;;;;;7384067;19;20130;-76
2022/03/23 12:17:03;;;;;;;6.97;5.43;;;17.70;59.30;;;;;;7384089;19;20153;-75
2022/03/23 12:19:31;;;;;;;7.10;5.32;;;17.70;59.20;;;;;;7385304;19;20127;-75
2022/03/23 12:22:06;;;;;;;6.13;4.53;;;17.70;58.90;;;;;;7384729;19;20262;-76
2022/03/23 12:24:55;;;;;;;6.55;5.65;;;17.70;58.50;;;;;;7384250;19;20140;-74
2022/03/23 12:27:28;;;;;;;7.60;5.85;;;17.90;57.10;;;;;;7385989;19;20158;-76
2022/03/23 12:29:58;;;;;;;7.32;5.40;;;17.90;57.00;;;;;;7385109;19;20563;-76
2022/03/23 12:32:35;;;;;;;7.43;5.40;;;17.90;58.40;;;;;;7383372;19;20163;-74
2022/03/23 12:35:00;;;;;;;9.38;5.32;;;18.00;58.00;;;;;;7385462;19;20137;-75
2022/03/23 12:37:39;;;;;;;6.97;5.30;;;18.00;57.50;;;;;;7381675;19;20146;-75
2022/03/23 12:40:14;;;;;;;8.82;6.22;;;18.20;58.20;;;;;;7383153;19;20214;-75
2022/03/23 12:42:43;;;;;;;6.65;5.60;;;18.10;57.40;;;;;;7388957;19;20137;-77
2022/03/23 12:45:21;;;;;;;8.75;6.38;;;18.10;57.70;;;;;;7383209;19;20131;-76
2022/03/23 12:47:58;;;;;;;7.05;5.57;;;18.20;57.10;;;;;;7382914;19;20130;-75
2022/03/23 12:59:36;;;;;;;9.10;5.50;;;18.20;56.80;;;;;;7385653;19;20149;-76
2022/03/23 13:02:28;;;;;;;7.07;5.35;;;18.40;56.60;;;;;;7382710;19;20658;-75
2022/03/23 13:04:55;;;;;;;6.53;5.35;;;18.50;56.50;;;;;;7383726;19;20198;-77
2022/03/23 13:07:27;;;;;;;7.07;5.47;;;18.50;56.10;;;;;;7382668;19;20143;-76
2022/03/23 13:09:56;;;;;;;10.43;6.30;;;18.60;56.70;;;;;;7385483;19;20254;-77
2022/03/23 13:12:28;;;;;;;9.27;6.57;;;18.70;55.50;;;;;;7382952;19;20198;-74
2022/03/23 13:14:54;;;;;;;9.05;5.57;;;18.70;55.40;;;;;;7386810;19;20154;-77
2022/03/23 13:17:20;;;;;;;7.35;5.50;;;18.70;54.50;;;;;;7386377;19;20571;-76
2022/03/23 13:19:46;;;;;;;7.28;5.70;;;18.60;53.30;;;;;;7390088;19;20131;-75
2022/03/23 13:22:12;;;;;;;8.45;5.95;;;18.60;55.00;;;;;;7389741;19;20504;-75